Time;durP1;ratioP1;P1;durP2;ratioP2;P2;SDS_P1;SDS_P2;PMS_P1;PMS_P2;Temp;Humidity;BMP_temperature;BMP_pressure;BME280_temperature;BME280_humidity;BME280_pressure;Samples;Min_cycle;Max_cycle;Signal;HPM_P1;HPM_P2
2023/01/02 00:01:38;;;;;;;0.40;0.40;;;7.50;99.90;;;;;;5076219;28;20685;-68
2023/01/02 00:04:04;;;;;;;0.90;0.90;;;7.40;99.90;;;;;;5075832;28;20200;-67
2023/01/02 00:06:33;;;;;;;0.73;0.73;;;7.50;99.90;;;;;;5076052;28;20221;-69
2023/01/02 00:08:59;;;;;;;2.17;2.08;;;7.50;99.90;;;;;;5076064;28;20533;-69
2023/01/02 00:11:25;;;;;;;1.33;0.63;;;7.40;99.90;;;;;;5075764;28;20209;-69
2023/01/02 00:13:50;;;;;;;0.40;0.40;;;7.50;99.90;;;;;;5075864;28;20494;-67
2023/01/02 00:16:16;;;;;;;0.40;0.40;;;7.50;99.90;;;;;;5075745;28;20177;-70
2023/01/02 00:18:42;;;;;;;0.60;0.60;;;7.60;99.90;;;;;;5074615;28;20175;-69
2023/01/02 00:21:07;;;;;;;0.60;0.60;;;7.60;99.90;;;;;;5075636;28;20201;-68
2023/01/02 00:23:33;;;;;;;0.30;0.30;;;7.60;99.90;;;;;;5075724;28;20258;-67
2023/01/02 00:25:59;;;;;;;0.70;0.70;;;7.60;99.90;;;;;;5075448;28;20172;-70
2023/01/02 00:28:25;;;;;;;1.77;0.82;;;7.50;99.90;;;;;;5075587;28;20260;-68
2023/01/02 00:30:51;;;;;;;0.50;0.50;;;7.60;99.90;;;;;;5075500;28;20686;-69
2023/01/02 00:33:16;;;;;;;1.47;0.83;;;7.50;99.90;;;;;;5075446;28;20201;-69
2023/01/02 00:35:42;;;;;;;0.50;0.50;;;7.50;99.90;;;;;;5073868;28;20923;-68
2023/01/02 00:38:08;;;;;;;0.77;0.40;;;7.50;99.90;;;;;;5075273;28;20171;-68
2023/01/02 00:40:34;;;;;;;0.30;0.30;;;7.50;99.90;;;;;;5073921;28;20230;-68
2023/01/02 00:43:00;;;;;;;0.40;0.40;;;7.40;99.90;;;;;;5075255;28;20586;-69
2023/01/02 00:45:26;;;;;;;0.30;0.30;;;7.50;99.90;;;;;;5075134;28;20248;-69
2023/01/02 00:47:51;;;;;;;0.50;0.50;;;7.40;99.90;;;;;;5075343;28;20244;-69
2023/01/02 00:50:17;;;;;;;0.93;0.83;;;7.50;99.90;;;;;;5075252;28;20208;-70
2023/01/02 00:52:42;;;;;;;0.80;0.80;;;7.40;99.90;;;;;;5075027;28;20195;-70
2023/01/02 00:55:08;;;;;;;0.60;0.60;;;7.40;99.90;;;;;;5074082;28;20205;-70
2023/01/02 00:57:34;;;;;;;0.40;0.40;;;7.50;99.90;;;;;;5074637;28;20232;-70
2023/01/02 01:00:00;;;;;;;0.30;0.30;;;7.40;99.90;;;;;;5074862;28;20407;-68
2023/01/02 01:02:25;;;;;;;0.50;0.50;;;7.40;99.90;;;;;;5073474;28;20211;-69
2023/01/02 01:04:51;;;;;;;0.40;0.40;;;7.40;99.90;;;;;;5074744;28;20177;-68
2023/01/02 01:07:17;;;;;;;0.30;0.30;;;7.40;99.90;;;;;;5074913;28;20183;-69
2023/01/02 01:09:42;;;;;;;1.53;0.60;;;7.40;99.90;;;;;;5074715;28;20671;-70
2023/01/02 01:12:08;;;;;;;0.50;0.50;;;7.40;99.90;;;;;;5074619;28;20309;-67
2023/01/02 01:14:33;;;;;;;0.30;0.30;;;7.40;99.90;;;;;;5074474;28;20167;-68
2023/01/02 01:16:59;;;;;;;0.30;0.30;;;7.40;99.90;;;;;;5074742;28;20172;-68
2023/01/02 01:19:33;;;;;;;3.15;2.92;;;7.40;99.90;;;;;;5074413;28;20178;-69
2023/01/02 01:21:59;;;;;;;0.40;0.40;;;7.40;99.90;;;;;;5073066;28;20219;-70
2023/01/02 01:24:24;;;;;;;0.40;0.40;;;7.40;99.90;;;;;;5074516;28;20176;-68
2023/01/02 01:26:50;;;;;;;1.17;0.40;;;7.40;99.90;;;;;;5074457;28;20179;-69
2023/01/02 01:29:16;;;;;;;0.53;0.53;;;7.40;99.90;;;;;;5074497;28;20178;-69
2023/01/02 01:31:41;;;;;;;0.50;0.50;;;7.30;99.90;;;;;;5074341;28;20191;-68
2023/01/02 01:34:07;;;;;;;5.03;1.80;;;7.20;99.90;;;;;;5074014;28;20255;-69
2023/01/02 01:36:35;;;;;;;0.40;0.40;;;7.20;99.90;;;;;;5074042;28;20186;-69
2023/01/02 01:39:01;;;;;;;0.50;0.50;;;7.30;99.90;;;;;;5074378;28;20229;-68
2023/01/02 01:41:27;;;;;;;0.50;0.50;;;7.30;99.90;;;;;;5073999;28;20204;-69
2023/01/02 01:43:55;;;;;;;0.40;0.40;;;7.30;99.90;;;;;;5074164;28;20539;-69
2023/01/02 01:46:23;;;;;;;0.30;0.30;;;7.20;99.90;;;;;;5074036;28;20404;-68
2023/01/02 01:48:53;;;;;;;0.30;0.30;;;7.10;99.90;;;;;;5074117;28;20225;-69
2023/01/02 01:51:19;;;;;;;0.38;0.38;;;7.10;99.90;;;;;;5074246;28;20195;-70
2023/01/02 01:53:48;;;;;;;5.97;1.75;;;7.00;99.90;;;;;;5073920;28;20391;-69
2023/01/02 01:56:14;;;;;;;0.30;0.30;;;7.00;99.90;;;;;;5073743;28;20180;-68
2023/01/02 01:58:43;;;;;;;0.60;0.60;;;7.00;99.90;;;;;;5073958;28;20203;-69
2023/01/02 02:01:12;;;;;;;3.72;0.75;;;7.10;99.90;;;;;;5073740;28;20472;-69
2023/01/02 02:03:41;;;;;;;0.40;0.40;;;7.20;99.90;;;;;;5073721;28;20177;-68
2023/01/02 02:06:08;;;;;;;0.30;0.30;;;7.30;99.90;;;;;;5073616;28;20274;-68
2023/01/02 02:08:45;;;;;;;0.63;0.63;;;7.30;99.90;;;;;;5073784;28;20176;-70
2023/01/02 02:11:13;;;;;;;0.40;0.40;;;7.30;99.90;;;;;;5073733;28;20674;-68
2023/01/02 02:13:39;;;;;;;0.30;0.30;;;7.30;99.90;;;;;;5073634;28;20600;-70
2023/01/02 02:16:20;;;;;;;0.70;0.70;;;7.20;99.90;;;;;;5073440;28;20173;-70
2023/01/02 02:19:09;;;;;;;0.68;0.68;;;7.30;99.90;;;;;;5073787;28;20685;-70
2023/01/02 02:21:53;;;;;;;0.40;0.40;;;7.20;99.90;;;;;;5073558;28;20204;-70
2023/01/02 02:24:28;;;;;;;0.55;0.55;;;7.20;99.90;;;;;;5073374;28;20173;-69
2023/01/02 02:27:18;;;;;;;1.08;1.08;;;7.20;99.90;;;;;;5073930;28;20211;-69
2023/01/02 02:29:49;;;;;;;0.60;0.60;;;7.30;99.90;;;;;;5072268;28;20629;-70
2023/01/02 02:32:25;;;;;;;0.45;0.45;;;7.20;99.90;;;;;;5073538;28;20204;-69
2023/01/02 02:35:14;;;;;;;0.40;0.40;;;7.20;99.90;;;;;;5073321;28;20168;-69
2023/01/02 02:38:10;;;;;;;0.50;0.50;;;7.20;99.90;;;;;;5073118;28;20241;-69
2023/01/02 02:41:05;;;;;;;4.07;0.82;;;7.20;99.90;;;;;;5072115;28;20180;-70
2023/01/02 02:43:48;;;;;;;0.30;0.30;;;7.20;99.90;;;;;;5073564;28;20193;-70
2023/01/02 02:46:33;;;;;;;0.30;0.30;;;7.10;99.90;;;;;;5073342;28;20287;-68
2023/01/02 02:49:12;;;;;;;0.50;0.50;;;7.10;99.90;;;;;;5073535;28;20168;-69
2023/01/02 02:51:43;;;;;;;0.30;0.30;;;7.10;99.90;;;;;;5073417;28;20573;-70
2023/01/02 02:54:19;;;;;;;0.52;0.50;;;7.20;99.90;;;;;;5073459;28;20173;-69
2023/01/02 02:56:47;;;;;;;0.50;0.50;;;7.10;99.90;;;;;;5073505;28;20191;-68
2023/01/02 02:59:12;;;;;;;1.85;0.68;;;7.20;99.90;;;;;;5073376;28;20168;-70
2023/01/02 03:01:38;;;;;;;0.50;0.50;;;7.20;99.90;;;;;;5073219;28;20567;-68
2023/01/02 03:04:18;;;;;;;0.40;0.40;;;7.30;99.90;;;;;;5073230;28;20406;-69
2023/01/02 03:06:44;;;;;;;0.30;0.30;;;7.40;99.90;;;;;;5073398;28;20557;-70
2023/01/02 03:09:25;;;;;;;0.50;0.50;;;7.40;99.90;;;;;;5073183;28;20169;-68
2023/01/02 03:12:03;;;;;;;0.68;0.68;;;7.40;99.90;;;;;;5073095;28;20241;-70
2023/01/02 03:14:52;;;;;;;0.65;0.65;;;7.40;99.90;;;;;;5072888;28;20168;-70
2023/01/02 03:17:59;;;;;;;0.65;0.65;;;7.40;99.90;;;;;;5073116;28;20624;-69
2023/01/02 03:20:31;;;;;;;2.78;2.38;;;7.40;99.90;;;;;;5075984;28;20191;-70
2023/01/02 03:23:02;;;;;;;1.35;1.35;;;7.30;99.90;;;;;;5076698;28;20674;-68
2023/01/02 03:25:30;;;;;;;1.35;0.98;;;7.30;99.90;;;;;;5076700;28;20516;-69
2023/01/02 03:27:59;;;;;;;0.40;0.40;;;7.30;99.90;;;;;;5076853;28;20178;-70
2023/01/02 03:30:24;;;;;;;0.50;0.50;;;7.40;99.90;;;;;;5076747;28;20168;-70
2023/01/02 03:33:04;;;;;;;0.40;0.40;;;7.40;99.90;;;;;;5076451;28;20734;-70
2023/01/02 03:35:45;;;;;;;0.30;0.30;;;7.40;99.90;;;;;;5076508;28;20172;-69
2023/01/02 03:38:19;;;;;;;3.15;0.75;;;7.50;99.90;;;;;;5076553;28;20180;-69
2023/01/02 03:40:52;;;;;;;0.40;0.40;;;7.60;99.90;;;;;;5076582;28;20176;-70
2023/01/02 03:43:24;;;;;;;0.50;0.50;;;7.60;99.90;;;;;;5076415;28;20160;-68
2023/01/02 03:46:14;;;;;;;0.80;0.80;;;7.60;99.90;;;;;;5076336;28;20556;-70
2023/01/02 03:48:39;;;;;;;0.30;0.30;;;7.60;99.90;;;;;;5076556;28;20572;-70
2023/01/02 03:51:06;;;;;;;0.40;0.40;;;7.50;99.90;;;;;;5076183;28;20241;-70
2023/01/02 03:53:35;;;;;;;0.60;0.60;;;7.60;99.90;;;;;;5076264;28;20172;-68
2023/01/02 03:56:25;;;;;;;0.50;0.50;;;7.60;99.90;;;;;;5075952;28;20173;-69
2023/01/02 03:58:50;;;;;;;0.68;0.68;;;7.50;99.90;;;;;;5076515;28;20172;-70
2023/01/02 04:01:44;;;;;;;0.77;0.77;;;7.40;99.90;;;;;;5074556;28;20254;-70
2023/01/02 04:04:28;;;;;;;0.50;0.50;;;7.40;99.90;;;;;;5075863;28;20234;-68
2023/01/02 04:07:02;;;;;;;0.30;0.30;;;7.50;99.90;;;;;;5075998;28;20165;-69
2023/01/02 04:09:31;;;;;;;2.30;2.10;;;7.50;99.90;;;;;;5076278;28;20173;-68
2023/01/02 04:12:09;;;;;;;1.40;1.30;;;7.50;99.90;;;;;;5075994;28;20197;-70
2023/01/02 04:14:47;;;;;;;1.90;0.50;;;7.50;99.90;;;;;;5075714;28;20172;-70
2023/01/02 04:17:16;;;;;;;0.43;0.43;;;7.60;99.90;;;;;;5075788;28;20175;-68
2023/01/02 04:20:07;;;;;;;1.45;1.45;;;7.60;99.90;;;;;;5075765;28;20279;-70
2023/01/02 04:22:38;;;;;;;0.40;0.40;;;7.60;99.90;;;;;;5075069;28;20207;-68
2023/01/02 04:25:13;;;;;;;1.13;0.73;;;7.50;99.90;;;;;;5075600;28;20188;-68
2023/01/02 04:27:56;;;;;;;3.15;2.50;;;7.50;99.90;;;;;;5075578;28;20195;-70
2023/01/02 04:30:22;;;;;;;0.55;0.55;;;7.50;99.90;;;;;;5075328;28;20169;-70
2023/01/02 04:32:48;;;;;;;0.30;0.30;;;7.50;99.90;;;;;;5075397;28;20211;-68
2023/01/02 04:35:25;;;;;;;0.73;0.73;;;7.50;99.90;;;;;;5075340;28;20256;-69
2023/01/02 04:37:51;;;;;;;0.45;0.45;;;7.60;99.90;;;;;;5075310;28;20204;-69
2023/01/02 04:40:26;;;;;;;0.50;0.50;;;7.60;99.90;;;;;;5075873;28;20234;-70
2023/01/02 04:42:52;;;;;;;0.50;0.50;;;7.60;99.90;;;;;;5073926;28;20200;-70
2023/01/02 04:45:18;;;;;;;0.43;0.43;;;7.60;99.90;;;;;;5075095;28;20180;-70
2023/01/02 04:47:45;;;;;;;0.50;0.50;;;7.60;99.90;;;;;;5075436;28;20961;-68
2023/01/02 04:50:11;;;;;;;0.75;0.75;;;7.60;99.90;;;;;;5075252;28;20267;-68
2023/01/02 04:52:37;;;;;;;0.40;0.40;;;7.70;99.90;;;;;;5074973;28;20601;-69
2023/01/02 04:55:03;;;;;;;0.30;0.30;;;7.70;99.90;;;;;;5074954;28;20177;-69
2023/01/02 04:57:30;;;;;;;0.98;0.98;;;7.70;99.90;;;;;;5074990;28;20165;-70
2023/01/02 04:59:57;;;;;;;0.40;0.40;;;7.70;99.90;;;;;;5073756;28;20716;-69
2023/01/02 05:02:24;;;;;;;0.40;0.40;;;7.70;99.90;;;;;;5073635;28;20685;-68
2023/01/02 05:04:50;;;;;;;0.40;0.40;;;7.60;99.90;;;;;;5075064;28;20196;-70
2023/01/02 05:07:15;;;;;;;0.40;0.40;;;7.60;99.90;;;;;;5074835;28;20176;-68
2023/01/02 05:09:42;;;;;;;0.50;0.50;;;7.60;99.90;;;;;;5074682;28;20177;-68
2023/01/02 05:12:08;;;;;;;0.52;0.52;;;7.50;99.90;;;;;;5074497;28;20435;-69
2023/01/02 05:14:33;;;;;;;1.43;1.30;;;7.50;99.90;;;;;;5074613;28;20187;-69
2023/01/02 05:16:59;;;;;;;0.80;0.80;;;7.50;99.90;;;;;;5074770;28;20170;-71
2023/01/02 05:19:25;;;;;;;0.70;0.60;;;7.40;99.90;;;;;;5074632;28;20187;-68
2023/01/02 05:24:34;;;;;;;0.63;0.63;;;7.50;99.90;;;;;;5074458;28;20416;-69
2023/01/02 05:27:00;;;;;;;0.30;0.30;;;7.60;99.90;;;;;;5074511;28;20172;-69
2023/01/02 05:29:25;;;;;;;0.40;0.40;;;7.60;99.90;;;;;;5074568;28;20525;-70
2023/01/02 05:31:51;;;;;;;0.93;0.50;;;7.60;99.90;;;;;;5074255;28;20250;-69
2023/01/02 05:34:17;;;;;;;0.57;0.57;;;7.60;99.90;;;;;;5074299;28;20185;-70
2023/01/02 05:36:42;;;;;;;0.40;0.40;;;7.60;99.90;;;;;;5074140;28;20192;-70
2023/01/02 05:39:11;;;;;;;3.00;2.73;;;7.70;99.90;;;;;;5074299;28;20648;-69
2023/01/02 05:41:38;;;;;;;0.50;0.50;;;7.80;99.90;;;;;;5073413;28;20197;-68
2023/01/02 05:44:05;;;;;;;0.68;0.68;;;7.70;99.90;;;;;;5073916;28;20183;-68
2023/01/02 05:46:30;;;;;;;0.50;0.50;;;7.60;99.90;;;;;;5072898;28;20185;-70
2023/01/02 05:48:56;;;;;;;0.40;0.40;;;7.60;99.90;;;;;;5074011;28;20176;-70
2023/01/02 05:51:21;;;;;;;0.33;0.33;;;7.60;99.90;;;;;;5072664;28;20197;-69
2023/01/02 05:53:47;;;;;;;0.60;0.40;;;7.60;99.90;;;;;;5073894;28;20234;-70
2023/01/02 05:56:15;;;;;;;0.30;0.30;;;7.60;99.90;;;;;;5073740;28;20177;-70
2023/01/02 05:58:43;;;;;;;0.40;0.40;;;7.60;99.90;;;;;;5074003;28;20176;-70
2023/01/02 06:01:20;;;;;;;0.60;0.60;;;7.60;99.90;;;;;;5073887;28;20208;-69
2023/01/02 06:03:48;;;;;;;0.60;0.60;;;7.50;99.90;;;;;;5074046;28;20180;-70
2023/01/02 06:06:15;;;;;;;0.50;0.50;;;7.50;99.90;;;;;;5073676;28;20171;-69
2023/01/02 06:08:43;;;;;;;0.95;0.95;;;7.50;99.90;;;;;;5073854;28;20177;-70
2023/01/02 06:11:10;;;;;;;0.60;0.60;;;7.50;99.90;;;;;;5073746;28;20325;-69
2023/01/02 06:13:37;;;;;;;0.30;0.30;;;7.40;99.90;;;;;;5073577;28;20181;-69
2023/01/02 06:16:04;;;;;;;0.30;0.30;;;7.30;99.90;;;;;;5073547;28;20175;-70
2023/01/02 06:18:31;;;;;;;0.50;0.40;;;7.30;99.90;;;;;;5073635;28;20215;-70
2023/01/02 06:21:02;;;;;;;0.65;0.65;;;7.40;99.90;;;;;;5073624;28;20197;-70
2023/01/02 06:23:28;;;;;;;0.40;0.40;;;7.30;99.90;;;;;;5073477;28;20226;-69
2023/01/02 06:25:54;;;;;;;0.50;0.50;;;7.30;99.90;;;;;;5073293;28;20188;-68
2023/01/02 06:28:19;;;;;;;0.70;0.70;;;7.40;99.90;;;;;;5073470;28;20411;-68
2023/01/02 06:30:45;;;;;;;3.10;0.87;;;7.40;99.90;;;;;;5073621;28;20203;-70
2023/01/02 06:33:10;;;;;;;0.40;0.40;;;7.40;99.90;;;;;;5073710;28;20255;-70
2023/01/02 06:35:36;;;;;;;0.60;0.60;;;7.40;99.90;;;;;;5073388;28;20281;-69
2023/01/02 06:38:02;;;;;;;0.30;0.30;;;7.40;99.90;;;;;;5073545;28;20176;-69
2023/01/02 06:40:27;;;;;;;0.40;0.40;;;7.50;99.90;;;;;;5073462;28;20172;-70
2023/01/02 06:42:53;;;;;;;0.60;0.60;;;7.50;99.90;;;;;;5073299;28;20228;-68
2023/01/02 06:45:18;;;;;;;0.40;0.40;;;7.50;99.90;;;;;;5073412;28;20572;-69
2023/01/02 06:47:44;;;;;;;1.00;1.00;;;7.50;99.90;;;;;;5073381;28;20182;-70
2023/01/02 06:50:10;;;;;;;0.50;0.50;;;7.60;99.90;;;;;;5073623;28;20234;-70
2023/01/02 06:52:35;;;;;;;0.50;0.50;;;7.70;99.90;;;;;;5073460;28;20280;-69
2023/01/02 06:55:01;;;;;;;0.73;0.70;;;7.80;99.90;;;;;;5075975;28;20188;-69
2023/01/02 06:57:30;;;;;;;0.73;0.73;;;7.80;99.90;;;;;;5077754;28;20180;-70
2023/01/02 06:59:56;;;;;;;0.40;0.40;;;7.80;99.90;;;;;;5076035;28;20637;-68
2023/01/02 07:02:21;;;;;;;0.30;0.30;;;7.90;99.90;;;;;;5077337;28;20204;-68
2023/01/02 07:04:47;;;;;;;0.40;0.40;;;7.90;99.90;;;;;;5077052;28;20540;-70
2023/01/02 07:07:12;;;;;;;0.87;0.87;;;7.90;99.90;;;;;;5077121;28;20256;-70
2023/01/02 07:09:38;;;;;;;0.37;0.37;;;7.90;99.90;;;;;;5077227;28;20180;-70
2023/01/02 07:12:04;;;;;;;0.93;0.93;;;8.00;99.90;;;;;;5076967;28;20196;-69
2023/01/02 07:14:30;;;;;;;0.50;0.50;;;8.00;99.90;;;;;;5076792;28;20629;-69
2023/01/02 07:16:55;;;;;;;1.23;1.23;;;7.90;99.90;;;;;;5076961;28;20452;-69
2023/01/02 07:19:21;;;;;;;2.60;2.50;;;8.00;99.90;;;;;;5076943;28;20174;-70
2023/01/02 07:21:47;;;;;;;0.83;0.83;;;8.00;99.90;;;;;;5076659;28;20216;-68
2023/01/02 07:24:14;;;;;;;0.50;0.50;;;8.00;99.90;;;;;;5075350;28;20184;-69
2023/01/02 07:26:42;;;;;;;0.60;0.60;;;7.90;99.90;;;;;;5076657;28;20645;-69
2023/01/02 07:29:08;;;;;;;0.65;0.65;;;7.90;99.90;;;;;;5076839;28;20248;-69
2023/01/02 07:31:34;;;;;;;0.60;0.60;;;8.00;99.90;;;;;;5076610;28;20232;-70
2023/01/02 07:34:00;;;;;;;0.50;0.50;;;8.00;99.90;;;;;;5076554;28;20635;-68
2023/01/02 07:36:26;;;;;;;0.87;0.77;;;8.00;99.90;;;;;;5076518;28;20250;-70
2023/01/02 07:38:53;;;;;;;1.33;1.23;;;8.00;99.90;;;;;;5076518;28;20413;-69
2023/01/02 07:41:20;;;;;;;0.40;0.40;;;8.00;99.90;;;;;;5076271;28;20205;-70
2023/01/02 07:43:47;;;;;;;0.30;0.30;;;8.00;99.90;;;;;;5076328;28;20169;-69
2023/01/02 07:46:15;;;;;;;0.30;0.30;;;7.90;99.90;;;;;;5076328;28;20708;-69
2023/01/02 07:48:41;;;;;;;0.40;0.40;;;7.80;99.90;;;;;;5076424;28;20260;-70
2023/01/02 07:51:07;;;;;;;0.40;0.40;;;7.90;99.90;;;;;;5076400;28;20194;-70
2023/01/02 07:53:33;;;;;;;19.40;1.77;;;8.00;99.90;;;;;;5076114;28;20170;-70
2023/01/02 07:55:59;;;;;;;2.10;2.00;;;8.00;99.90;;;;;;5076043;28;20526;-69
2023/01/02 07:58:25;;;;;;;0.30;0.30;;;8.00;99.90;;;;;;5076315;28;20415;-70
2023/01/02 08:00:52;;;;;;;0.30;0.30;;;8.10;99.90;;;;;;5076039;28;20196;-70
2023/01/02 08:03:18;;;;;;;0.30;0.30;;;8.10;99.80;;;;;;5076023;28;20399;-70
2023/01/02 08:05:44;;;;;;;0.50;0.50;;;8.20;99.90;;;;;;5075142;28;20195;-69
2023/01/02 08:08:09;;;;;;;0.50;0.40;;;8.20;99.80;;;;;;5076073;28;20248;-70
2023/01/02 08:10:36;;;;;;;0.63;0.63;;;8.20;99.80;;;;;;5075793;28;20168;-70
2023/01/02 08:13:02;;;;;;;4.97;0.88;;;8.20;99.90;;;;;;5075941;28;20179;-67
2023/01/02 08:15:28;;;;;;;1.10;1.10;;;8.30;99.90;;;;;;5075859;28;20183;-70
2023/01/02 08:17:55;;;;;;;0.30;0.30;;;8.20;99.90;;;;;;5075697;28;20176;-68
2023/01/02 08:20:21;;;;;;;1.38;0.70;;;8.20;99.90;;;;;;5076032;28;20181;-67
2023/01/02 08:22:47;;;;;;;0.70;0.60;;;8.30;99.90;;;;;;5075513;28;20213;-70
2023/01/02 08:25:12;;;;;;;0.93;0.90;;;8.40;99.50;;;;;;5075462;28;20249;-69
2023/01/02 08:27:38;;;;;;;0.30;0.30;;;8.40;99.60;;;;;;5075651;28;20298;-68
2023/01/02 08:30:04;;;;;;;0.40;0.40;;;8.50;99.70;;;;;;5075758;28;20580;-70
2023/01/02 08:32:33;;;;;;;0.60;0.60;;;8.50;99.50;;;;;;5075443;28;20185;-70
2023/01/02 08:34:59;;;;;;;3.25;3.05;;;8.50;99.60;;;;;;5075334;28;20174;-70
2023/01/02 08:37:24;;;;;;;0.87;0.60;;;8.60;99.70;;;;;;5075345;28;20548;-69
2023/01/02 08:39:50;;;;;;;0.30;0.30;;;8.50;99.30;;;;;;5075375;28;20180;-69
2023/01/02 08:42:16;;;;;;;0.50;0.50;;;8.50;99.20;;;;;;5075218;28;20750;-70
2023/01/02 08:44:42;;;;;;;0.97;0.87;;;8.50;99.30;;;;;;5075198;28;20162;-70
2023/01/02 08:47:08;;;;;;;1.73;1.63;;;8.70;99.20;;;;;;5073946;28;20411;-70
2023/01/02 08:49:33;;;;;;;0.50;0.50;;;8.70;98.80;;;;;;5075332;28;20230;-69
2023/01/02 08:51:59;;;;;;;0.70;0.70;;;8.80;98.40;;;;;;5073798;28;20189;-69
2023/01/02 08:54:24;;;;;;;0.50;0.50;;;8.90;98.20;;;;;;5075185;28;20201;-70
2023/01/02 08:56:50;;;;;;;0.40;0.40;;;9.00;98.50;;;;;;5075057;28;20177;-68
2023/01/02 08:59:16;;;;;;;1.27;1.27;;;9.00;98.60;;;;;;5075087;28;20219;-70
2023/01/02 09:01:41;;;;;;;0.40;0.40;;;8.80;98.70;;;;;;5074909;28;20258;-68
2023/01/02 09:04:08;;;;;;;0.40;0.40;;;8.80;99.10;;;;;;5074902;28;20531;-69
2023/01/02 09:06:35;;;;;;;0.40;0.40;;;8.90;99.30;;;;;;5074816;28;20531;-70
2023/01/02 09:09:02;;;;;;;0.50;0.50;;;9.00;98.90;;;;;;5075029;28;20244;-70
2023/01/02 09:11:31;;;;;;;1.90;1.80;;;9.20;98.70;;;;;;5074798;28;20193;-70
2023/01/02 09:13:58;;;;;;;0.35;0.35;;;9.30;98.10;;;;;;5074646;28;20230;-69
2023/01/02 09:16:24;;;;;;;0.50;0.50;;;9.50;98.00;;;;;;5073748;28;20666;-70
2023/01/02 09:18:51;;;;;;;0.30;0.30;;;9.60;97.80;;;;;;5074460;28;20517;-70
2023/01/02 09:21:16;;;;;;;0.40;0.40;;;9.80;98.10;;;;;;5074409;28;20197;-67
2023/01/02 09:23:42;;;;;;;1.77;1.17;;;9.90;98.30;;;;;;5074914;28;20170;-69
2023/01/02 09:26:10;;;;;;;1.33;0.50;;;10.00;97.90;;;;;;5074435;28;20165;-69
2023/01/02 09:28:36;;;;;;;2.75;2.55;;;10.10;97.90;;;;;;5074438;28;20400;-69
2023/01/02 09:31:13;;;;;;;2.93;1.60;;;10.30;98.10;;;;;;5074500;28;20677;-69
2023/01/02 09:33:40;;;;;;;5.55;1.50;;;10.40;98.30;;;;;;5074300;28;20171;-70
2023/01/02 09:36:08;;;;;;;2.95;1.35;;;10.50;98.00;;;;;;5073960;28;20178;-70
2023/01/02 09:38:41;;;;;;;0.60;0.60;;;10.50;96.80;;;;;;5089351;27;20520;-69
2023/01/02 09:41:43;;;;;;;6.93;1.50;;;10.60;96.80;;;;;;5091013;28;20321;-69
2023/01/02 09:44:27;;;;;;;2.10;2.00;;;10.70;96.60;;;;;;5091106;28;20542;-68
2023/01/02 09:47:05;;;;;;;3.10;2.90;;;10.70;96.20;;;;;;5089694;28;20879;-69
2023/01/02 09:49:56;;;;;;;1.88;1.35;;;10.60;96.10;;;;;;5091055;28;20391;-68
2023/01/02 09:52:26;;;;;;;1.60;1.50;;;10.60;95.80;;;;;;5090894;28;20611;-69
2023/01/02 09:54:52;;;;;;;1.40;1.30;;;10.80;95.50;;;;;;5090751;28;20400;-69
2023/01/02 09:57:27;;;;;;;1.23;1.13;;;10.90;95.70;;;;;;5090671;28;20346;-68
2023/01/02 10:00:01;;;;;;;4.03;2.20;;;11.00;95.90;;;;;;5090942;28;20395;-68
2023/01/02 10:02:36;;;;;;;2.00;1.70;;;11.10;96.00;;;;;;5090737;28;20787;-69
2023/01/02 10:05:23;;;;;;;1.48;1.38;;;11.00;95.90;;;;;;5090464;28;20481;-68
2023/01/02 10:08:00;;;;;;;2.20;2.00;;;11.00;96.30;;;;;;5090769;28;20172;-68
2023/01/02 10:10:33;;;;;;;13.93;2.80;;;11.00;96.70;;;;;;5090696;28;20443;-69
2023/01/02 10:13:11;;;;;;;1.77;1.63;;;11.00;96.80;;;;;;5090378;28;20164;-69
2023/01/02 10:15:41;;;;;;;9.40;2.20;;;11.10;96.70;;;;;;5090358;28;20807;-69
2023/01/02 10:18:44;;;;;;;0.50;0.50;;;11.40;95.60;;;;;;5090174;28;20450;-69
2023/01/02 10:21:09;;;;;;;0.40;0.40;;;12.20;94.80;;;;;;5088205;28;20426;-68
2023/01/02 10:23:43;;;;;;;1.80;0.80;;;12.70;93.20;;;;;;5089888;28;20471;-69
2023/01/02 10:26:17;;;;;;;0.60;0.60;;;13.40;92.30;;;;;;5090071;28;20175;-68
2023/01/02 10:28:54;;;;;;;1.27;1.17;;;14.20;89.60;;;;;;5090262;28;20398;-69
2023/01/02 10:31:28;;;;;;;0.40;0.40;;;14.70;88.00;;;;;;5090159;28;20422;-67
2023/01/02 10:34:01;;;;;;;1.67;1.57;;;15.10;85.50;;;;;;5088735;28;20399;-69
2023/01/02 10:36:47;;;;;;;8.37;0.90;;;15.60;83.80;;;;;;5089749;28;20935;-69
2023/01/02 10:39:21;;;;;;;0.97;0.77;;;15.50;82.20;;;;;;5090049;28;20418;-69
2023/01/02 10:42:09;;;;;;;0.70;0.67;;;15.50;83.50;;;;;;5089933;28;20414;-68
2023/01/02 10:44:37;;;;;;;0.50;0.50;;;15.50;81.90;;;;;;5089674;28;20469;-68
2023/01/02 10:47:30;;;;;;;0.80;0.50;;;15.70;81.00;;;;;;5089755;28;20757;-70
2023/01/02 10:49:56;;;;;;;0.57;0.57;;;15.60;80.20;;;;;;5077110;28;20938;-68
2023/01/02 10:52:26;;;;;;;1.17;0.87;;;15.60;79.50;;;;;;5076337;28;20423;-69
2023/01/02 10:54:54;;;;;;;0.90;0.90;;;15.80;78.40;;;;;;5076404;28;20454;-70
2023/01/02 10:57:44;;;;;;;1.17;0.70;;;15.60;80.70;;;;;;5076235;28;20453;-68
2023/01/02 11:00:30;;;;;;;0.63;0.63;;;15.60;74.40;;;;;;5076272;28;20418;-70
2023/01/02 11:03:16;;;;;;;0.90;0.60;;;15.70;80.20;;;;;;5076030;28;20389;-69
2023/01/02 11:05:45;;;;;;;0.60;0.60;;;15.90;77.20;;;;;;5075846;28;20394;-70
2023/01/02 11:08:15;;;;;;;1.67;1.13;;;16.10;74.50;;;;;;5075979;28;20403;-68
2023/01/02 11:10:41;;;;;;;0.43;0.43;;;16.30;77.00;;;;;;5075974;28;20402;-68
2023/01/02 11:13:13;;;;;;;0.40;0.40;;;16.40;71.60;;;;;;5075786;28;20415;-68
2023/01/02 11:16:00;;;;;;;0.50;0.50;;;16.50;74.20;;;;;;5075599;28;20404;-69
2023/01/02 11:18:32;;;;;;;0.43;0.43;;;16.30;70.10;;;;;;5075673;28;20478;-69
2023/01/02 11:21:03;;;;;;;1.03;0.60;;;16.10;71.30;;;;;;5075617;28;20432;-69
2023/01/02 11:23:38;;;;;;;0.30;0.30;;;16.00;73.30;;;;;;5075712;28;20384;-70
2023/01/02 11:26:09;;;;;;;0.70;0.57;;;15.90;68.80;;;;;;5075422;28;20529;-68
2023/01/02 11:28:39;;;;;;;1.47;1.37;;;15.60;68.10;;;;;;5074243;28;20923;-69
2023/01/02 11:31:08;;;;;;;0.63;0.63;;;15.40;73.90;;;;;;5075793;28;20871;-69
2023/01/02 11:33:35;;;;;;;0.50;0.40;;;15.30;77.00;;;;;;5075445;28;20411;-69
2023/01/02 11:36:15;;;;;;;0.83;0.83;;;15.30;75.30;;;;;;5075309;28;20430;-68
2023/01/02 11:38:51;;;;;;;0.43;0.40;;;15.30;71.80;;;;;;5075621;28;20447;-69
2023/01/02 11:44:32;;;;;;;0.30;0.30;;;14.80;76.10;;;;;;5075087;28;20379;-70
2023/01/02 11:46:59;;;;;;;0.60;0.50;;;14.50;78.20;;;;;;5075433;28;20388;-69
2023/01/02 11:49:42;;;;;;;0.50;0.50;;;14.30;77.40;;;;;;5075198;28;20404;-69
2023/01/02 11:52:22;;;;;;;0.60;0.60;;;14.00;76.10;;;;;;5075144;28;20423;-68
2023/01/02 11:55:11;;;;;;;0.40;0.40;;;13.90;73.90;;;;;;5074974;28;20416;-70
2023/01/02 11:57:41;;;;;;;0.53;0.53;;;13.80;77.10;;;;;;5075304;28;20456;-69
2023/01/02 12:00:12;;;;;;;0.30;0.30;;;13.60;74.70;;;;;;5073924;28;20409;-69
2023/01/02 12:02:44;;;;;;;0.50;0.50;;;13.50;76.90;;;;;;5074834;28;20420;-69
2023/01/02 12:05:17;;;;;;;0.53;0.53;;;13.40;77.20;;;;;;5074742;28;20474;-69
2023/01/02 12:08:00;;;;;;;0.97;0.93;;;13.30;77.10;;;;;;5074919;28;20396;-70
2023/01/02 12:11:00;;;;;;;0.40;0.40;;;13.30;77.50;;;;;;5074741;28;20403;-67
2023/01/02 12:13:35;;;;;;;0.50;0.50;;;13.30;78.60;;;;;;5073274;28;20431;-69
2023/01/02 12:16:33;;;;;;;1.13;0.93;;;13.10;82.60;;;;;;5074321;28;20399;-69
2023/01/02 12:19:08;;;;;;;0.40;0.40;;;13.00;77.80;;;;;;5074614;28;20410;-69
2023/01/02 12:21:46;;;;;;;0.50;0.50;;;13.10;76.20;;;;;;5074539;28;20911;-69
2023/01/02 12:24:36;;;;;;;2.13;0.53;;;13.30;78.70;;;;;;5074248;28;20770;-69
2023/01/02 12:27:18;;;;;;;0.40;0.40;;;13.40;78.30;;;;;;5074430;28;20420;-68
2023/01/02 12:30:15;;;;;;;0.73;0.73;;;13.70;77.00;;;;;;5074412;28;20433;-68
2023/01/02 12:33:11;;;;;;;0.50;0.50;;;13.90;76.80;;;;;;5074209;28;20431;-69
2023/01/02 12:36:02;;;;;;;0.40;0.40;;;14.10;75.70;;;;;;5074118;28;20415;-69
2023/01/02 12:38:57;;;;;;;0.50;0.50;;;14.20;74.30;;;;;;5073954;28;20964;-69
2023/01/02 12:41:40;;;;;;;0.30;0.30;;;14.20;72.70;;;;;;5074269;28;20771;-69
2023/01/02 12:44:20;;;;;;;0.40;0.40;;;14.40;73.70;;;;;;5074151;28;20838;-69
2023/01/02 12:47:08;;;;;;;0.50;0.50;;;14.60;74.00;;;;;;5074165;28;20491;-69
2023/01/02 12:49:44;;;;;;;0.37;0.37;;;14.80;71.80;;;;;;5074175;28;20440;-69
2023/01/02 12:52:25;;;;;;;0.40;0.40;;;14.80;71.30;;;;;;5074043;28;20431;-68
2023/01/02 12:55:15;;;;;;;0.80;0.80;;;14.80;71.80;;;;;;5073800;28;20862;-67
2023/01/02 12:58:11;;;;;;;0.80;0.80;;;14.80;70.40;;;;;;5073941;28;20443;-68
2023/01/02 13:00:55;;;;;;;0.50;0.50;;;14.60;71.90;;;;;;5074015;28;20384;-69
2023/01/02 13:03:54;;;;;;;0.50;0.50;;;14.40;73.90;;;;;;5073748;28;21041;-67
2023/01/02 13:06:39;;;;;;;1.97;0.80;;;14.40;74.80;;;;;;5073598;28;20389;-69
2023/01/02 13:09:16;;;;;;;0.30;0.30;;;14.30;73.60;;;;;;5074270;28;20845;-67
2023/01/02 13:12:03;;;;;;;0.40;0.40;;;14.20;72.40;;;;;;5073419;28;20420;-67
2023/01/02 13:14:43;;;;;;;0.67;0.67;;;14.10;74.30;;;;;;5073967;28;20729;-69
2023/01/02 13:17:39;;;;;;;1.90;1.07;;;14.10;73.10;;;;;;5071787;28;20506;-68
2023/01/02 13:20:24;;;;;;;0.40;0.40;;;14.10;72.00;;;;;;5073492;28;20821;-68
2023/01/02 13:22:59;;;;;;;0.40;0.40;;;14.10;72.90;;;;;;5071572;28;20938;-69